createdAt,value
2022-11-01T00:00:02.657Z,11.2
2022-11-01T00:15:02.976Z,11.4
2022-11-01T00:30:02.615Z,11.6
2022-11-01T00:45:02.846Z,11.6
2022-11-01T01:00:02.305Z,11.5
2022-11-01T01:15:02.733Z,11.5
2022-11-01T01:30:03.204Z,11.7
2022-11-01T01:45:02.679Z,11.9
2022-11-01T02:00:03.051Z,12.0
2022-11-01T02:15:02.672Z,12.0
2022-11-01T02:30:02.947Z,12.0
2022-11-01T02:45:02.390Z,12.2
2022-11-01T03:00:02.834Z,12.3
2022-11-01T03:15:02.258Z,12.3
2022-11-01T03:30:02.708Z,12.8
2022-11-01T03:45:03.133Z,13.6
2022-11-01T04:00:02.700Z,14.1
2022-11-01T04:15:02.995Z,14.6
2022-11-01T04:30:02.447Z,14.9
2022-11-01T04:45:02.903Z,14.8
2022-11-01T05:00:02.336Z,14.8
2022-11-01T05:15:02.775Z,14.9
2022-11-01T05:30:02.206Z,15.1
2022-11-01T05:45:02.728Z,15.3
2022-11-01T06:00:03.099Z,15.5
2022-11-01T06:15:02.731Z,15.6
2022-11-01T06:30:02.962Z,15.9
2022-11-01T06:45:02.384Z,16.0
2022-11-01T07:00:02.903Z,16.2
2022-11-01T07:15:02.268Z,16.3
2022-11-01T07:30:02.742Z,16.3
2022-11-01T07:45:03.130Z,16.3
2022-11-01T08:00:02.755Z,16.2
2022-11-01T08:15:03.009Z,15.7
2022-11-01T08:30:02.500Z,15.4
2022-11-01T08:45:02.887Z,16.5
2022-11-01T09:00:02.340Z,17.9
2022-11-01T09:15:02.785Z,18.4
2022-11-01T09:30:03.223Z,18.5
2022-11-01T09:45:02.776Z,18.7
2022-11-01T10:00:03.099Z,18.8
2022-11-01T10:15:02.527Z,17.4
2022-11-01T10:30:02.972Z,16.4
2022-11-01T10:45:02.401Z,16.1
2022-11-01T11:00:02.855Z,16.8
2022-11-01T11:15:02.284Z,17.2
2022-11-01T11:30:02.790Z,17.2
2022-11-01T11:45:03.139Z,17.7
2022-11-01T12:00:02.810Z,18.7
2022-11-01T12:15:03.012Z,19.4
2022-11-01T12:30:02.461Z,19.5
2022-11-01T12:45:02.916Z,19.0
2022-11-01T13:00:02.323Z,18.6
2022-11-01T13:15:02.826Z,17.3
2022-11-01T13:30:02.205Z,16.7
2022-11-01T14:00:03.065Z,16.3
2022-11-01T14:15:02.508Z,16.2
2022-11-01T14:30:02.958Z,16.1
2022-11-01T14:45:02.376Z,15.9
2022-11-01T15:00:02.847Z,15.7
2022-11-01T15:15:02.265Z,15.5
2022-11-01T15:30:02.851Z,15.1
2022-11-01T15:45:02.129Z,14.9
2022-11-01T16:00:02.577Z,14.5
2022-11-01T16:15:03.023Z,14.1
2022-11-01T16:30:02.454Z,13.8
2022-11-01T16:45:02.899Z,13.6
2022-11-01T17:00:02.401Z,13.5
2022-11-01T17:15:02.896Z,13.4
2022-11-01T17:30:02.183Z,13.4
2022-11-01T17:45:02.858Z,13.2
2022-11-01T18:00:02.073Z,13.0
2022-11-01T18:15:02.494Z,12.7
2022-11-01T18:30:02.947Z,12.7
2022-11-01T18:45:02.393Z,12.9
2022-11-01T19:00:02.899Z,13.0
2022-11-01T19:15:02.253Z,13.1
2022-11-01T19:30:02.897Z,13.0
2022-11-01T19:45:02.122Z,12.8
2022-11-01T20:00:02.578Z,12.7
2022-11-01T20:15:03.025Z,12.7
2022-11-01T20:30:02.465Z,12.6
2022-11-01T20:45:02.907Z,12.6
2022-11-01T21:00:02.327Z,12.6
2022-11-01T21:15:02.895Z,12.6
2022-11-01T21:30:02.199Z,12.5
2022-11-01T21:45:02.687Z,12.6
2022-11-01T22:00:03.105Z,12.7
2022-11-01T22:15:02.535Z,12.7
2022-11-01T22:30:02.996Z,12.6
2022-11-01T22:45:02.419Z,12.5
2022-11-01T23:00:03.008Z,12.7
2022-11-01T23:15:02.296Z,12.7
2022-11-01T23:30:02.943Z,12.7
2022-11-01T23:45:02.152Z,12.7
